Time;durP1;ratioP1;P1;durP2;ratioP2;P2;SDS_P1;SDS_P2;PMS_P1;PMS_P2;Temp;Humidity;BMP_temperature;BMP_pressure;BME280_temperature;BME280_humidity;BME280_pressure;Samples;Min_cycle;Max_cycle;Signal;HPM_P1;HPM_P2
2023/11/23 06:46:01;;;;;;;19.17;12.07;;;;;;;;;;10541335;28;20416;-82
2023/11/23 06:51:02;;;;;;;20.38;10.55;;;;;;;;;;10541067;28;20070;-83
2023/11/23 06:56:03;;;;;;;17.50;12.10;;;;;;;;;;10540857;28;20530;-83
2023/11/23 07:01:04;;;;;;;13.50;9.82;;;;;;;;;;10522593;28;20510;-83
2023/11/23 07:06:06;;;;;;;11.27;9.23;;;;;;;;;;10521221;28;20043;-84
2023/11/23 07:11:09;;;;;;;9.98;8.00;;;;;;;;;;10525269;28;20024;-83
2023/11/23 07:16:12;;;;;;;9.25;6.40;;;;;;;;;;10509483;28;20036;-84
2023/11/23 07:21:14;;;;;;;11.27;9.45;;;;;;;;;;10523574;28;20073;-83
2023/11/23 07:26:15;;;;;;;11.43;8.07;;;;;;;;;;10538916;28;20091;-83
2023/11/23 07:31:16;;;;;;;15.77;13.07;;;;;;;;;;10541130;28;20028;-84
2023/11/23 07:36:18;;;;;;;13.90;9.63;;;;;;;;;;10525021;28;20511;-84
2023/11/23 07:41:19;;;;;;;11.27;9.57;;;;;;;;;;10522253;28;20039;-83
2023/11/23 07:46:20;;;;;;;11.05;9.50;;;;;;;;;;10524780;28;20024;-84
2023/11/23 07:51:21;;;;;;;12.73;10.80;;;;;;;;;;10523496;28;20055;-83
2023/11/23 07:56:22;;;;;;;;;;;;;;;;;;10517551;28;20426;-83
2023/11/23 08:01:23;;;;;;;5.60;4.05;;;;;;;;;;10495614;28;19911;-83
2023/11/23 08:06:24;;;;;;;;;;;;;;;;;;10497961;28;20399;-84
2023/11/23 08:11:25;;;;;;;9.27;7.90;;;;;;;;;;10495931;28;19968;-81
2023/11/23 08:16:26;;;;;;;;;;;;;;;;;;10494491;28;20119;-80
2023/11/23 08:21:27;;;;;;;10.95;7.72;;;;;;;;;;10492957;28;19904;-81
2023/11/23 08:26:28;;;;;;;;;;;;;;;;;;10511832;28;20024;-81
2023/11/23 08:31:29;;;;;;;10.48;7.18;;;;;;;;;;10510571;28;19908;-80
2023/11/23 08:36:30;;;;;;;12.80;9.30;;;;;;;;;;10492501;28;20035;-80
2023/11/23 08:41:31;;;;;;;6.97;5.10;;;;;;;;;;10492160;28;20036;-81
2023/11/23 08:46:33;;;;;;;8.15;5.72;;;;;;;;;;10493974;28;20032;-82
2023/11/23 08:51:34;;;;;;;8.43;5.63;;;;;;;;;;10493623;28;20028;-81
2023/11/23 08:56:35;;;;;;;7.88;4.97;;;;;;;;;;10493134;28;20029;-81
2023/11/23 09:01:36;;;;;;;8.43;6.38;;;;;;;;;;10492970;28;20035;-81
2023/11/23 09:06:37;;;;;;;7.28;6.00;;;;;;;;;;10492652;28;20036;-81
2023/11/23 09:11:38;;;;;;;;;;;;;;;;;;10494240;28;20037;-80
2023/11/23 09:16:41;;;;;;;15.27;11.80;;;;;;;;;;10493413;28;19904;-81
2023/11/23 09:21:46;;;;;;;9.75;7.32;;;;;;;;;;10495665;28;20033;-81
2023/11/23 09:26:47;;;;;;;12.55;9.05;;;;;;;;;;10496946;28;20032;-81
2023/11/23 09:31:48;;;;;;;11.80;9.70;;;;;;;;;;10512501;28;20049;-80
2023/11/23 09:36:49;;;;;;;;;;;;;;;;;;10489929;28;20024;-81
2023/11/23 09:41:51;;;;;;;11.55;7.78;;;;;;;;;;10485001;28;19922;-82
2023/11/23 09:46:53;;;;;;;12.20;7.72;;;;;;;;;;10482950;28;20032;-80
2023/11/23 09:51:55;;;;;;;9.05;7.07;;;;;;;;;;10484698;28;20077;-81
2023/11/23 09:56:56;;;;;;;10.07;7.05;;;;;;;;;;10485855;28;20495;-80
2023/11/23 10:02:03;;;;;;;14.05;10.15;;;;;;;;;;10504102;28;20035;-81
2023/11/23 10:07:06;;;;;;;15.32;11.32;;;;;;;;;;10505562;28;20024;-82
2023/11/23 10:12:08;;;;;;;11.55;9.45;;;;;;;;;;10487659;28;20391;-81
2023/11/23 10:17:09;;;;;;;15.88;12.63;;;;;;;;;;10490566;28;20395;-80
2023/11/23 10:22:10;;;;;;;;;;;;;;;;;;10491472;28;20078;-81
2023/11/23 10:27:11;;;;;;;;;;;;;;;;;;10492123;28;20279;-81
2023/11/23 10:32:13;;;;;;;13.43;11.00;;;;;;;;;;10491322;28;19918;-81
2023/11/23 10:37:18;;;;;;;16.58;12.95;;;;;;;;;;10491553;28;20138;-82
2023/11/23 10:42:20;;;;;;;14.13;11.82;;;;;;;;;;10514322;28;20020;-81
2023/11/23 10:47:22;;;;;;;12.73;9.98;;;;;;;;;;10493535;28;20028;-81
2023/11/23 10:52:24;;;;;;;14.18;12.13;;;;;;;;;;10494572;28;20042;-80
2023/11/23 10:57:25;;;;;;;13.48;10.57;;;;;;;;;;10507751;28;20009;-81
2023/11/23 11:02:26;;;;;;;;;;;;;;;;;;10502213;28;20033;-80
2023/11/23 11:07:30;;;;;;;9.85;8.45;;;;;;;;;;10489014;28;20306;-80
2023/11/23 11:12:37;;;;;;;8.45;7.15;;;;;;;;;;10507106;28;20024;-80
2023/11/23 11:17:39;;;;;;;12.07;10.10;;;;;;;;;;10488657;28;20074;-79
2023/11/23 11:22:40;;;;;;;13.85;10.57;;;;;;;;;;10486810;28;20166;-79
2023/11/23 11:27:41;;;;;;;12.60;10.93;;;;;;;;;;10485997;28;20035;-80
2023/11/23 11:32:42;;;;;;;;;;;;;;;;;;10497902;28;20111;-78
2023/11/23 11:37:45;;;;;;;9.60;8.10;;;;;;;;;;10517344;28;19904;-79
2023/11/23 11:42:47;;;;;;;9.75;8.60;;;;;;;;;;10492996;28;20037;-82
2023/11/23 11:47:48;;;;;;;8.02;7.10;;;;;;;;;;10514974;28;20029;-81
2023/11/23 11:52:49;;;;;;;11.38;7.72;;;;;;;;;;10492706;28;20115;-79
2023/11/23 11:57:50;;;;;;;14.98;10.23;;;;;;;;;;10493732;28;20039;-78
2023/11/23 12:02:51;;;;;;;13.15;9.70;;;;;;;;;;10493458;28;20024;-80
2023/11/23 12:07:55;;;;;;;7.40;6.07;;;;;;;;;;10492091;28;20119;-80
2023/11/23 12:12:56;;;;;;;10.05;7.32;;;;;;;;;;10510435;28;20028;-80
2023/11/23 12:17:58;;;;;;;;;;;;;;;;;;10510204;28;20467;-80
2023/11/23 12:22:59;;;;;;;;;;;;;;;;;;10492124;28;19904;-79
2023/11/23 12:28:02;;;;;;;;;;;;;;;;;;10491964;28;20394;-80
2023/11/23 12:33:05;;;;;;;7.55;5.93;;;;;;;;;;10509532;28;19909;-83
2023/11/23 12:38:06;;;;;;;9.98;6.82;;;;;;;;;;10494146;28;20020;-80
2023/11/23 12:43:07;;;;;;;7.72;6.10;;;;;;;;;;10493196;28;20135;-80
2023/11/23 12:48:08;;;;;;;;;;;;;;;;;;10512181;28;20174;-80
2023/11/23 12:53:10;;;;;;;9.30;5.65;;;;;;;;;;10489250;28;20045;-80
2023/11/23 12:58:12;;;;;;;6.75;5.43;;;;;;;;;;10462165;22;20457;-80
2023/11/23 13:03:14;;;;;;;10.13;6.10;;;;;;;;;;10408573;28;20052;-79
2023/11/23 13:08:15;;;;;;;7.90;7.03;;;;;;;;;;10434086;28;20036;-80
2023/11/23 13:13:16;;;;;;;9.60;7.18;;;;;;;;;;10449117;28;20091;-82
2023/11/23 13:18:18;;;;;;;8.50;5.68;;;;;;;;;;10449480;28;20396;-82
2023/11/23 13:23:19;;;;;;;8.88;6.97;;;;;;;;;;10450369;28;20032;-81
2023/11/23 13:28:21;;;;;;;9.68;8.55;;;;;;;;;;10453579;28;20500;-81
2023/11/23 13:33:23;;;;;;;6.55;5.18;;;;;;;;;;10450276;28;20037;-80
2023/11/23 13:38:24;;;;;;;6.47;5.50;;;;;;;;;;10468423;28;20027;-83
2023/11/23 13:43:25;;;;;;;9.75;7.38;;;;;;;;;;10448670;28;20097;-81
2023/11/23 13:48:31;;;;;;;9.13;5.30;;;;;;;;;;10466508;28;20035;-79
2023/11/23 13:53:32;;;;;;;8.80;4.65;;;;;;;;;;10450630;28;20156;-81
2023/11/23 13:58:33;;;;;;;7.82;5.65;;;;;;;;;;10447688;28;20552;-82
2023/11/23 14:03:34;;;;;;;9.23;5.03;;;;;;;;;;10450506;28;20092;-81
2023/11/23 14:08:36;;;;;;;7.20;5.35;;;;;;;;;;10447682;28;20033;-80
2023/11/23 14:13:37;;;;;;;6.00;5.40;;;;;;;;;;10449578;28;20025;-80
2023/11/23 14:18:41;;;;;;;6.18;3.88;;;;;;;;;;10449396;28;20035;-83
2023/11/23 14:23:46;;;;;;;6.57;4.43;;;;;;;;;;10448532;28;20040;-80
2023/11/23 14:28:48;;;;;;;7.65;5.80;;;;;;;;;;10449327;28;20037;-82
2023/11/23 14:33:54;;;;;;;6.70;4.88;;;;;;;;;;10449701;28;20029;-84
2023/11/23 14:38:58;;;;;;;6.93;4.72;;;;;;;;;;10447702;28;20029;-81
2023/11/23 14:43:59;;;;;;;6.95;4.90;;;;;;;;;;10451122;28;20025;-82
2023/11/23 14:49:00;;;;;;;6.38;3.75;;;;;;;;;;10448999;28;20503;-84
2023/11/23 14:54:01;;;;;;;;;;;;;;;;;;10451459;28;20120;-83
2023/11/23 14:59:05;;;;;;;6.95;4.47;;;;;;;;;;10450488;28;19913;-82
2023/11/23 15:04:06;;;;;;;6.03;4.25;;;;;;;;;;10453603;28;20373;-82
2023/11/23 15:09:07;;;;;;;;;;;;;;;;;;10461056;28;20032;-81
2023/11/23 15:14:08;;;;;;;7.30;4.65;;;;;;;;;;10477047;28;19908;-81
2023/11/23 15:19:09;;;;;;;;;;;;;;;;;;10458166;28;20480;-82
2023/11/23 15:24:16;;;;;;;8.38;4.80;;;;;;;;;;10459607;28;19905;-83
2023/11/23 15:29:18;;;;;;;6.35;4.18;;;;;;;;;;10458694;28;20164;-81
2023/11/23 15:34:21;;;;;;;6.82;4.35;;;;;;;;;;10456906;28;20389;-82
2023/11/23 15:39:27;;;;;;;7.15;4.22;;;;;;;;;;10462755;28;20021;-83
2023/11/23 15:44:28;;;;;;;7.07;5.55;;;;;;;;;;10457910;28;20021;-82
2023/11/23 15:49:29;;;;;;;;;;;;;;;;;;10458916;28;20036;-81
2023/11/23 15:54:30;;;;;;;7.20;5.15;;;;;;;;;;10467706;28;19896;-83
2023/11/23 15:59:31;;;;;;;;;;;;;;;;;;10485449;28;20172;-82
2023/11/23 16:04:32;;;;;;;4.00;3.15;;;;;;;;;;10493899;28;19939;-85
2023/11/23 16:09:33;;;;;;;;;;;;;;;;;;10463151;28;20028;-85
2023/11/23 16:14:36;;;;;;;6.00;3.50;;;;;;;;;;10460775;28;19919;-85
2023/11/23 16:19:37;;;;;;;4.43;2.80;;;;;;;;;;10459201;28;20036;-85
2023/11/23 16:24:38;;;;;;;8.15;4.40;;;;;;;;;;10458842;28;20107;-84
2023/11/23 16:29:39;;;;;;;;;;;;;;;;;;10459941;28;20107;-83
2023/11/23 16:34:41;;;;;;;10.60;4.95;;;;;;;;;;10480119;28;19909;-84
2023/11/23 16:39:42;;;;;;;5.18;3.50;;;;;;;;;;10459171;28;20025;-83
2023/11/23 16:44:43;;;;;;;8.63;4.57;;;;;;;;;;10476263;28;20033;-84
2023/11/23 16:49:44;;;;;;;;;;;;;;;;;;10458008;28;20060;-82
2023/11/23 16:54:45;;;;;;;4.07;3.00;;;;;;;;;;10456774;28;19913;-84
2023/11/23 16:59:47;;;;;;;2.97;2.53;;;;;;;;;;10456435;28;20039;-82
2023/11/23 17:04:48;;;;;;;4.25;2.65;;;;;;;;;;10476519;28;20083;-82
2023/11/23 17:09:49;;;;;;;5.72;3.13;;;;;;;;;;10453892;28;20025;-83
2023/11/23 17:14:52;;;;;;;3.45;2.13;;;;;;;;;;10468823;28;20016;-84
2023/11/23 17:19:53;;;;;;;5.15;2.63;;;;;;;;;;10459739;28;20033;-86
2023/11/23 17:24:54;;;;;;;;;;;;;;;;;;10455953;28;20029;-87
2023/11/23 17:29:55;;;;;;;4.60;2.90;;;;;;;;;;10454884;28;19958;-90
2023/11/23 17:34:56;;;;;;;5.25;3.10;;;;;;;;;;10455819;28;20067;-90
2023/11/23 17:39:57;;;;;;;7.38;3.50;;;;;;;;;;10453099;28;20037;-90
2023/11/23 17:44:59;;;;;;;5.13;3.17;;;;;;;;;;10455668;28;20036;-89
2023/11/23 17:50:00;;;;;;;9.20;6.13;;;;;;;;;;10454275;28;20035;-88
2023/11/23 17:55:03;;;;;;;;;;;;;;;;;;10447687;28;20028;-88
2023/11/23 18:00:12;;;;;;;7.30;3.75;;;;;;;;;;10452161;28;19970;-88
2023/11/23 18:05:14;;;;;;;5.30;2.90;;;;;;;;;;10456565;28;20088;-87
2023/11/23 18:10:15;;;;;;;6.30;3.65;;;;;;;;;;10464861;28;20033;-86
2023/11/23 18:15:17;;;;;;;5.25;3.47;;;;;;;;;;10484081;28;20107;-86
2023/11/23 18:20:19;;;;;;;;;;;;;;;;;;10461703;28;20025;-88
2023/11/23 18:25:20;;;;;;;9.45;4.55;;;;;;;;;;10457965;28;19904;-87
2023/11/23 18:30:22;;;;;;;5.28;3.90;;;;;;;;;;10459873;28;20085;-87
2023/11/23 18:35:23;;;;;;;;;;;;;;;;;;10456589;28;20052;-87
2023/11/23 18:40:25;;;;;;;6.85;4.13;;;;;;;;;;10455224;28;19915;-87
2023/11/23 18:45:26;;;;;;;5.97;3.13;;;;;;;;;;10484910;28;20017;-86
2023/11/23 18:50:27;;;;;;;;;;;;;;;;;;10448503;28;20167;-89
2023/11/23 18:55:28;;;;;;;6.05;3.78;;;;;;;;;;10502492;22;19943;-79
2023/11/23 19:00:30;;;;;;;5.90;3.33;;;;;;;;;;10405826;28;20436;-83
2023/11/23 19:05:34;;;;;;;5.70;3.10;;;;;;;;;;10405965;28;20028;-84
2023/11/23 19:10:35;;;;;;;8.32;4.65;;;;;;;;;;10439448;28;20033;-83
2023/11/23 19:15:36;;;;;;;7.60;4.10;;;;;;;;;;10441423;28;20029;-83
2023/11/23 19:20:37;;;;;;;6.72;3.80;;;;;;;;;;10440428;28;20381;-83
2023/11/23 19:25:38;;;;;;;;;;;;;;;;;;10461937;28;20099;-85
2023/11/23 19:30:39;;;;;;;6.20;4.63;;;;;;;;;;10447046;28;19905;-83
2023/11/23 19:35:40;;;;;;;;;;;;;;;;;;10460178;28;20041;-80
2023/11/23 19:40:42;;;;;;;6.28;4.18;;;;;;;;;;10501866;28;19923;-83
2023/11/23 19:45:43;;;;;;;3.92;3.40;;;;;;;;;;10459551;28;20362;-83
2023/11/23 19:50:44;;;;;;;;;;;;;;;;;;10446711;28;20032;-83
2023/11/23 19:55:45;;;;;;;4.35;3.55;;;;;;;;;;10450532;28;20291;-84
2023/11/23 20:00:46;;;;;;;7.05;3.60;;;;;;;;;;10450663;28;20033;-83
2023/11/23 20:05:47;;;;;;;6.18;3.80;;;;;;;;;;10448607;28;20033;-84
